sensor_id;sensor_type;location;lat;lon;timestamp;P1;durP1;ratioP1;P2;durP2;ratioP2
6292;SDS011;3179;54.350;10.102;2023-07-30T00:00:06;4.60;;;2.60;;
6292;SDS011;3179;54.350;10.102;2023-07-30T00:02:35;3.30;;;2.67;;
6292;SDS011;3179;54.350;10.102;2023-07-30T00:05:04;7.53;;;3.20;;
6292;SDS011;3179;54.350;10.102;2023-07-30T00:07:31;3.00;;;2.40;;
6292;SDS011;3179;54.350;10.102;2023-07-30T00:09:59;3.80;;;2.97;;
6292;SDS011;3179;54.350;10.102;2023-07-30T00:12:26;3.73;;;2.83;;
6292;SDS011;3179;54.350;10.102;2023-07-30T00:14:52;4.60;;;2.70;;
6292;SDS011;3179;54.350;10.102;2023-07-30T00:17:19;3.90;;;2.60;;
6292;SDS011;3179;54.350;10.102;2023-07-30T00:19:46;4.50;;;2.70;;
6292;SDS011;3179;54.350;10.102;2023-07-30T00:22:13;3.53;;;2.67;;
6292;SDS011;3179;54.350;10.102;2023-07-30T00:24:39;5.57;;;3.40;;
6292;SDS011;3179;54.350;10.102;2023-07-30T00:27:07;3.87;;;2.70;;
6292;SDS011;3179;54.350;10.102;2023-07-30T00:29:34;6.27;;;3.57;;
6292;SDS011;3179;54.350;10.102;2023-07-30T00:32:01;6.40;;;2.93;;
6292;SDS011;3179;54.350;10.102;2023-07-30T00:34:28;7.70;;;3.27;;
6292;SDS011;3179;54.350;10.102;2023-07-30T00:36:54;6.00;;;3.07;;
6292;SDS011;3179;54.350;10.102;2023-07-30T00:39:21;4.20;;;3.13;;
6292;SDS011;3179;54.350;10.102;2023-07-30T00:41:48;5.50;;;3.90;;
6292;SDS011;3179;54.350;10.102;2023-07-30T00:44:17;4.47;;;3.47;;
6292;SDS011;3179;54.350;10.102;2023-07-30T00:46:43;6.07;;;4.07;;
6292;SDS011;3179;54.350;10.102;2023-07-30T00:49:10;4.20;;;3.30;;
6292;SDS011;3179;54.350;10.102;2023-07-30T00:51:37;3.40;;;3.03;;
6292;SDS011;3179;54.350;10.102;2023-07-30T00:54:04;5.20;;;3.60;;
6292;SDS011;3179;54.350;10.102;2023-07-30T00:56:31;5.63;;;3.50;;
6292;SDS011;3179;54.350;10.102;2023-07-30T00:58:58;4.47;;;3.10;;
6292;SDS011;3179;54.350;10.102;2023-07-30T01:01:26;6.00;;;3.07;;
6292;SDS011;3179;54.350;10.102;2023-07-30T01:03:53;3.10;;;2.80;;
6292;SDS011;3179;54.350;10.102;2023-07-30T01:06:20;6.10;;;3.13;;
6292;SDS011;3179;54.350;10.102;2023-07-30T01:08:48;5.07;;;3.00;;
6292;SDS011;3179;54.350;10.102;2023-07-30T01:11:15;5.60;;;2.87;;
6292;SDS011;3179;54.350;10.102;2023-07-30T01:13:42;3.00;;;2.70;;
6292;SDS011;3179;54.350;10.102;2023-07-30T01:16:09;5.00;;;3.20;;
6292;SDS011;3179;54.350;10.102;2023-07-30T01:18:38;3.60;;;2.77;;
6292;SDS011;3179;54.350;10.102;2023-07-30T01:21:06;7.67;;;3.33;;
6292;SDS011;3179;54.350;10.102;2023-07-30T01:23:33;7.37;;;3.70;;
6292;SDS011;3179;54.350;10.102;2023-07-30T01:26:01;4.10;;;3.60;;
6292;SDS011;3179;54.350;10.102;2023-07-30T01:28:35;5.23;;;3.43;;
6292;SDS011;3179;54.350;10.102;2023-07-30T01:31:05;3.83;;;2.93;;
6292;SDS011;3179;54.350;10.102;2023-07-30T01:33:34;4.63;;;3.67;;
6292;SDS011;3179;54.350;10.102;2023-07-30T01:36:01;12.77;;;3.43;;
6292;SDS011;3179;54.350;10.102;2023-07-30T01:38:29;7.60;;;3.30;;
6292;SDS011;3179;54.350;10.102;2023-07-30T01:40:56;5.00;;;3.03;;
6292;SDS011;3179;54.350;10.102;2023-07-30T01:43:23;6.40;;;3.40;;
6292;SDS011;3179;54.350;10.102;2023-07-30T01:45:50;3.80;;;3.10;;
6292;SDS011;3179;54.350;10.102;2023-07-30T01:48:17;4.10;;;3.23;;
6292;SDS011;3179;54.350;10.102;2023-07-30T01:50:43;5.23;;;2.70;;
6292;SDS011;3179;54.350;10.102;2023-07-30T01:53:12;4.70;;;3.30;;
6292;SDS011;3179;54.350;10.102;2023-07-30T01:55:40;5.80;;;3.23;;
6292;SDS011;3179;54.350;10.102;2023-07-30T01:58:08;4.00;;;3.60;;
6292;SDS011;3179;54.350;10.102;2023-07-30T02:00:35;3.83;;;2.97;;
6292;SDS011;3179;54.350;10.102;2023-07-30T02:03:02;5.90;;;3.30;;
6292;SDS011;3179;54.350;10.102;2023-07-30T02:05:29;7.00;;;3.47;;
6292;SDS011;3179;54.350;10.102;2023-07-30T02:07:56;5.03;;;3.70;;
6292;SDS011;3179;54.350;10.102;2023-07-30T02:10:24;3.33;;;3.03;;
6292;SDS011;3179;54.350;10.102;2023-07-30T02:12:52;5.97;;;3.70;;
6292;SDS011;3179;54.350;10.102;2023-07-30T02:15:19;3.70;;;3.30;;
6292;SDS011;3179;54.350;10.102;2023-07-30T02:17:45;4.50;;;3.67;;
6292;SDS011;3179;54.350;10.102;2023-07-30T02:20:12;5.20;;;4.00;;
6292;SDS011;3179;54.350;10.102;2023-07-30T02:22:39;6.77;;;4.30;;
6292;SDS011;3179;54.350;10.102;2023-07-30T02:25:06;4.37;;;3.97;;
6292;SDS011;3179;54.350;10.102;2023-07-30T02:27:33;4.00;;;3.60;;
6292;SDS011;3179;54.350;10.102;2023-07-30T02:30:01;5.53;;;3.73;;
6292;SDS011;3179;54.350;10.102;2023-07-30T02:32:28;4.37;;;3.87;;
6292;SDS011;3179;54.350;10.102;2023-07-30T02:34:56;5.37;;;4.00;;
6292;SDS011;3179;54.350;10.102;2023-07-30T02:37:22;5.23;;;4.07;;
6292;SDS011;3179;54.350;10.102;2023-07-30T02:39:49;4.20;;;3.80;;
6292;SDS011;3179;54.350;10.102;2023-07-30T02:42:16;5.47;;;4.00;;
6292;SDS011;3179;54.350;10.102;2023-07-30T02:44:43;4.40;;;3.67;;
6292;SDS011;3179;54.350;10.102;2023-07-30T02:47:11;5.03;;;3.60;;
6292;SDS011;3179;54.350;10.102;2023-07-30T02:49:37;4.13;;;3.20;;
6292;SDS011;3179;54.350;10.102;2023-07-30T02:52:04;6.00;;;4.10;;
6292;SDS011;3179;54.350;10.102;2023-07-30T02:54:31;5.37;;;3.17;;
6292;SDS011;3179;54.350;10.102;2023-07-30T02:56:58;6.93;;;3.77;;
6292;SDS011;3179;54.350;10.102;2023-07-30T02:59:25;4.57;;;3.63;;
6292;SDS011;3179;54.350;10.102;2023-07-30T03:01:51;4.93;;;3.57;;
6292;SDS011;3179;54.350;10.102;2023-07-30T03:04:20;4.17;;;3.40;;
6292;SDS011;3179;54.350;10.102;2023-07-30T03:06:46;4.90;;;3.70;;
6292;SDS011;3179;54.350;10.102;2023-07-30T03:09:13;5.87;;;3.57;;
6292;SDS011;3179;54.350;10.102;2023-07-30T03:11:40;3.37;;;3.07;;
6292;SDS011;3179;54.350;10.102;2023-07-30T03:14:06;4.87;;;3.37;;
6292;SDS011;3179;54.350;10.102;2023-07-30T03:16:33;5.73;;;3.70;;
6292;SDS011;3179;54.350;10.102;2023-07-30T03:19:00;4.60;;;3.70;;
6292;SDS011;3179;54.350;10.102;2023-07-30T03:21:28;4.00;;;3.60;;
6292;SDS011;3179;54.350;10.102;2023-07-30T03:23:55;3.80;;;3.50;;
6292;SDS011;3179;54.350;10.102;2023-07-30T03:26:22;3.67;;;3.20;;
6292;SDS011;3179;54.350;10.102;2023-07-30T03:28:48;4.47;;;4.00;;
6292;SDS011;3179;54.350;10.102;2023-07-30T03:31:15;6.50;;;3.67;;
6292;SDS011;3179;54.350;10.102;2023-07-30T03:33:42;3.93;;;3.57;;
6292;SDS011;3179;54.350;10.102;2023-07-30T03:36:10;3.80;;;3.40;;
6292;SDS011;3179;54.350;10.102;2023-07-30T03:38:39;4.83;;;3.73;;
6292;SDS011;3179;54.350;10.102;2023-07-30T03:41:06;3.73;;;3.17;;
6292;SDS011;3179;54.350;10.102;2023-07-30T03:43:32;4.50;;;4.00;;
6292;SDS011;3179;54.350;10.102;2023-07-30T03:45:59;4.50;;;3.33;;
6292;SDS011;3179;54.350;10.102;2023-07-30T03:48:26;3.50;;;3.20;;
6292;SDS011;3179;54.350;10.102;2023-07-30T03:50:53;4.30;;;3.67;;
6292;SDS011;3179;54.350;10.102;2023-07-30T03:53:21;3.70;;;3.40;;
6292;SDS011;3179;54.350;10.102;2023-07-30T03:55:49;5.77;;;3.10;;
6292;SDS011;3179;54.350;10.102;2023-07-30T03:58:16;5.73;;;3.67;;
6292;SDS011;3179;54.350;10.102;2023-07-30T04:00:42;4.00;;;3.40;;
6292;SDS011;3179;54.350;10.102;2023-07-30T04:03:09;3.33;;;3.03;;
6292;SDS011;3179;54.350;10.102;2023-07-30T04:05:36;3.33;;;2.97;;
6292;SDS011;3179;54.350;10.102;2023-07-30T04:08:03;3.63;;;3.20;;
6292;SDS011;3179;54.350;10.102;2023-07-30T04:10:29;3.23;;;2.70;;
6292;SDS011;3179;54.350;10.102;2023-07-30T04:12:58;3.77;;;3.37;;
6292;SDS011;3179;54.350;10.102;2023-07-30T04:15:25;3.37;;;3.07;;
6292;SDS011;3179;54.350;10.102;2023-07-30T04:17:52;3.60;;;3.30;;
6292;SDS011;3179;54.350;10.102;2023-07-30T04:20:18;2.90;;;2.70;;
6292;SDS011;3179;54.350;10.102;2023-07-30T04:22:45;3.77;;;3.20;;
6292;SDS011;3179;54.350;10.102;2023-07-30T04:25:12;2.90;;;2.70;;
6292;SDS011;3179;54.350;10.102;2023-07-30T04:27:39;3.20;;;2.70;;
6292;SDS011;3179;54.350;10.102;2023-07-30T04:30:07;3.13;;;2.60;;
6292;SDS011;3179;54.350;10.102;2023-07-30T04:32:34;2.80;;;2.60;;
6292;SDS011;3179;54.350;10.102;2023-07-30T04:35:01;3.90;;;2.93;;
6292;SDS011;3179;54.350;10.102;2023-07-30T04:37:29;3.00;;;2.80;;
6292;SDS011;3179;54.350;10.102;2023-07-30T04:39:56;2.73;;;2.37;;
6292;SDS011;3179;54.350;10.102;2023-07-30T04:42:23;3.47;;;3.10;;
6292;SDS011;3179;54.350;10.102;2023-07-30T04:44:50;3.90;;;3.17;;
6292;SDS011;3179;54.350;10.102;2023-07-30T04:47:18;4.97;;;3.67;;
6292;SDS011;3179;54.350;10.102;2023-07-30T04:49:44;4.10;;;3.70;;
6292;SDS011;3179;54.350;10.102;2023-07-30T04:52:11;4.00;;;3.60;;
6292;SDS011;3179;54.350;10.102;2023-07-30T04:54:38;4.60;;;4.20;;
6292;SDS011;3179;54.350;10.102;2023-07-30T04:57:05;4.93;;;3.73;;
6292;SDS011;3179;54.350;10.102;2023-07-30T04:59:32;5.03;;;4.57;;
6292;SDS011;3179;54.350;10.102;2023-07-30T05:01:59;4.97;;;4.57;;
6292;SDS011;3179;54.350;10.102;2023-07-30T05:04:27;4.40;;;4.00;;
6292;SDS011;3179;54.350;10.102;2023-07-30T05:06:54;4.33;;;4.03;;
6292;SDS011;3179;54.350;10.102;2023-07-30T05:09:21;5.40;;;4.90;;
6292;SDS011;3179;54.350;10.102;2023-07-30T05:11:48;4.90;;;4.50;;
6292;SDS011;3179;54.350;10.102;2023-07-30T05:14:14;5.33;;;4.40;;
6292;SDS011;3179;54.350;10.102;2023-07-30T05:16:41;5.07;;;4.50;;
6292;SDS011;3179;54.350;10.102;2023-07-30T05:19:08;5.93;;;4.63;;
6292;SDS011;3179;54.350;10.102;2023-07-30T05:21:36;5.67;;;4.90;;
6292;SDS011;3179;54.350;10.102;2023-07-30T05:24:03;6.20;;;3.80;;
6292;SDS011;3179;54.350;10.102;2023-07-30T05:26:30;5.53;;;5.03;;
6292;SDS011;3179;54.350;10.102;2023-07-30T05:28:57;5.47;;;4.97;;
6292;SDS011;3179;54.350;10.102;2023-07-30T05:31:24;5.83;;;5.03;;
6292;SDS011;3179;54.350;10.102;2023-07-30T05:33:51;4.97;;;4.47;;
6292;SDS011;3179;54.350;10.102;2023-07-30T05:36:18;5.97;;;4.90;;
6292;SDS011;3179;54.350;10.102;2023-07-30T05:38:46;6.40;;;4.37;;
6292;SDS011;3179;54.350;10.102;2023-07-30T05:41:13;5.03;;;4.63;;
6292;SDS011;3179;54.350;10.102;2023-07-30T05:43:39;5.10;;;4.60;;
6292;SDS011;3179;54.350;10.102;2023-07-30T05:46:06;5.87;;;5.23;;
6292;SDS011;3179;54.350;10.102;2023-07-30T05:48:34;8.00;;;5.60;;
6292;SDS011;3179;54.350;10.102;2023-07-30T05:51:00;5.33;;;4.83;;
6292;SDS011;3179;54.350;10.102;2023-07-30T05:53:27;7.17;;;5.03;;
6292;SDS011;3179;54.350;10.102;2023-07-30T05:55:55;6.03;;;5.30;;
6292;SDS011;3179;54.350;10.102;2023-07-30T05:58:22;5.60;;;5.10;;
6292;SDS011;3179;54.350;10.102;2023-07-30T06:00:49;7.17;;;6.13;;
6292;SDS011;3179;54.350;10.102;2023-07-30T06:03:16;5.27;;;4.77;;
6292;SDS011;3179;54.350;10.102;2023-07-30T06:05:42;6.70;;;5.13;;
6292;SDS011;3179;54.350;10.102;2023-07-30T06:08:09;6.53;;;4.90;;
6292;SDS011;3179;54.350;10.102;2023-07-30T06:10:36;8.03;;;5.07;;
6292;SDS011;3179;54.350;10.102;2023-07-30T06:13:04;5.90;;;5.00;;
6292;SDS011;3179;54.350;10.102;2023-07-30T06:15:31;6.17;;;4.83;;
6292;SDS011;3179;54.350;10.102;2023-07-30T06:17:58;5.90;;;4.60;;
6292;SDS011;3179;54.350;10.102;2023-07-30T06:20:27;5.53;;;4.53;;
6292;SDS011;3179;54.350;10.102;2023-07-30T06:22:53;7.47;;;5.57;;
6292;SDS011;3179;54.350;10.102;2023-07-30T06:25:20;4.23;;;3.90;;
6292;SDS011;3179;54.350;10.102;2023-07-30T06:27:47;8.83;;;6.30;;
6292;SDS011;3179;54.350;10.102;2023-07-30T06:30:15;6.60;;;4.27;;
6292;SDS011;3179;54.350;10.102;2023-07-30T06:32:42;5.37;;;4.87;;
6292;SDS011;3179;54.350;10.102;2023-07-30T06:35:08;8.50;;;5.53;;
6292;SDS011;3179;54.350;10.102;2023-07-30T06:37:35;10.20;;;5.40;;
6292;SDS011;3179;54.350;10.102;2023-07-30T06:40:02;6.80;;;4.87;;
6292;SDS011;3179;54.350;10.102;2023-07-30T06:42:31;4.73;;;4.33;;
6292;SDS011;3179;54.350;10.102;2023-07-30T06:44:58;7.33;;;4.17;;
6292;SDS011;3179;54.350;10.102;2023-07-30T06:47:26;9.10;;;5.00;;
6292;SDS011;3179;54.350;10.102;2023-07-30T06:49:52;7.33;;;4.00;;
6292;SDS011;3179;54.350;10.102;2023-07-30T06:52:19;9.20;;;4.50;;
6292;SDS011;3179;54.350;10.102;2023-07-30T06:54:46;5.83;;;3.97;;
6292;SDS011;3179;54.350;10.102;2023-07-30T06:57:13;5.03;;;3.17;;
6292;SDS011;3179;54.350;10.102;2023-07-30T06:59:39;4.43;;;3.67;;
6292;SDS011;3179;54.350;10.102;2023-07-30T07:02:06;4.70;;;3.50;;
6292;SDS011;3179;54.350;10.102;2023-07-30T07:04:34;9.30;;;3.57;;
6292;SDS011;3179;54.350;10.102;2023-07-30T07:07:01;6.40;;;4.53;;
6292;SDS011;3179;54.350;10.102;2023-07-30T07:09:29;6.93;;;3.30;;
6292;SDS011;3179;54.350;10.102;2023-07-30T07:11:56;4.30;;;3.50;;
6292;SDS011;3179;54.350;10.102;2023-07-30T07:14:23;4.73;;;3.10;;
6292;SDS011;3179;54.350;10.102;2023-07-30T07:16:51;5.47;;;3.50;;
6292;SDS011;3179;54.350;10.102;2023-07-30T07:19:18;5.73;;;3.30;;
6292;SDS011;3179;54.350;10.102;2023-07-30T07:21:46;3.27;;;2.67;;
6292;SDS011;3179;54.350;10.102;2023-07-30T07:24:13;7.57;;;3.30;;
6292;SDS011;3179;54.350;10.102;2023-07-30T07:26:40;8.40;;;3.73;;
6292;SDS011;3179;54.350;10.102;2023-07-30T07:29:07;8.17;;;3.70;;
6292;SDS011;3179;54.350;10.102;2023-07-30T07:31:34;4.17;;;3.63;;
6292;SDS011;3179;54.350;10.102;2023-07-30T07:34:01;4.27;;;2.97;;
6292;SDS011;3179;54.350;10.102;2023-07-30T07:36:27;7.40;;;3.40;;
6292;SDS011;3179;54.350;10.102;2023-07-30T07:38:55;5.00;;;3.10;;
6292;SDS011;3179;54.350;10.102;2023-07-30T07:41:22;5.67;;;2.70;;
6292;SDS011;3179;54.350;10.102;2023-07-30T07:43:50;5.97;;;2.67;;
6292;SDS011;3179;54.350;10.102;2023-07-30T07:46:18;7.77;;;3.40;;
6292;SDS011;3179;54.350;10.102;2023-07-30T07:48:45;5.00;;;3.13;;
6292;SDS011;3179;54.350;10.102;2023-07-30T07:51:12;4.33;;;3.07;;
6292;SDS011;3179;54.350;10.102;2023-07-30T07:53:39;6.73;;;3.13;;
6292;SDS011;3179;54.350;10.102;2023-07-30T07:56:07;7.07;;;3.20;;
6292;SDS011;3179;54.350;10.102;2023-07-30T07:58:34;4.77;;;2.77;;
6292;SDS011;3179;54.350;10.102;2023-07-30T08:01:01;3.67;;;2.83;;
6292;SDS011;3179;54.350;10.102;2023-07-30T08:03:28;5.13;;;2.50;;
6292;SDS011;3179;54.350;10.102;2023-07-30T08:05:54;4.20;;;2.73;;
6292;SDS011;3179;54.350;10.102;2023-07-30T08:08:21;6.10;;;2.87;;
6292;SDS011;3179;54.350;10.102;2023-07-30T08:10:48;5.07;;;2.77;;
6292;SDS011;3179;54.350;10.102;2023-07-30T08:13:16;5.63;;;3.07;;
6292;SDS011;3179;54.350;10.102;2023-07-30T08:15:43;6.40;;;3.10;;
6292;SDS011;3179;54.350;10.102;2023-07-30T08:18:10;6.43;;;3.90;;
6292;SDS011;3179;54.350;10.102;2023-07-30T08:20:36;5.60;;;3.00;;
6292;SDS011;3179;54.350;10.102;2023-07-30T08:23:03;5.10;;;2.90;;
6292;SDS011;3179;54.350;10.102;2023-07-30T08:25:30;3.80;;;2.83;;
6292;SDS011;3179;54.350;10.102;2023-07-30T08:27:57;5.30;;;3.20;;
6292;SDS011;3179;54.350;10.102;2023-07-30T08:30:25;4.60;;;3.00;;
6292;SDS011;3179;54.350;10.102;2023-07-30T08:32:52;3.50;;;2.87;;
6292;SDS011;3179;54.350;10.102;2023-07-30T08:35:18;6.30;;;3.40;;
6292;SDS011;3179;54.350;10.102;2023-07-30T08:37:45;4.40;;;2.83;;
6292;SDS011;3179;54.350;10.102;2023-07-30T08:40:12;5.70;;;3.03;;
6292;SDS011;3179;54.350;10.102;2023-07-30T08:42:38;4.43;;;2.90;;
6292;SDS011;3179;54.350;10.102;2023-07-30T08:45:05;5.97;;;2.80;;
6292;SDS011;3179;54.350;10.102;2023-07-30T08:47:35;6.37;;;3.07;;
6292;SDS011;3179;54.350;10.102;2023-07-30T08:50:02;4.67;;;2.70;;
6292;SDS011;3179;54.350;10.102;2023-07-30T08:52:29;8.40;;;3.13;;
6292;SDS011;3179;54.350;10.102;2023-07-30T08:54:56;4.80;;;3.00;;
6292;SDS011;3179;54.350;10.102;2023-07-30T08:57:26;4.40;;;2.83;;
6292;SDS011;3179;54.350;10.102;2023-07-30T08:59:57;4.77;;;2.60;;
6292;SDS011;3179;54.350;10.102;2023-07-30T09:02:30;5.80;;;3.00;;
6292;SDS011;3179;54.350;10.102;2023-07-30T09:05:05;3.83;;;2.67;;
6292;SDS011;3179;54.350;10.102;2023-07-30T09:07:33;5.27;;;2.50;;
6292;SDS011;3179;54.350;10.102;2023-07-30T09:09:59;8.00;;;2.20;;
6292;SDS011;3179;54.350;10.102;2023-07-30T09:12:28;8.03;;;2.60;;
6292;SDS011;3179;54.350;10.102;2023-07-30T09:14:55;5.90;;;2.77;;
6292;SDS011;3179;54.350;10.102;2023-07-30T09:17:22;4.83;;;2.10;;
6292;SDS011;3179;54.350;10.102;2023-07-30T09:19:50;4.57;;;2.10;;
6292;SDS011;3179;54.350;10.102;2023-07-30T09:22:21;5.00;;;2.40;;
6292;SDS011;3179;54.350;10.102;2023-07-30T09:24:51;3.83;;;1.63;;
6292;SDS011;3179;54.350;10.102;2023-07-30T09:27:19;5.13;;;2.10;;
6292;SDS011;3179;54.350;10.102;2023-07-30T09:29:50;5.70;;;3.10;;
6292;SDS011;3179;54.350;10.102;2023-07-30T09:32:18;7.10;;;2.20;;
6292;SDS011;3179;54.350;10.102;2023-07-30T09:34:45;6.63;;;2.17;;
6292;SDS011;3179;54.350;10.102;2023-07-30T09:37:13;5.00;;;1.90;;
6292;SDS011;3179;54.350;10.102;2023-07-30T09:39:42;9.63;;;2.20;;
6292;SDS011;3179;54.350;10.102;2023-07-30T09:42:09;6.27;;;2.00;;
6292;SDS011;3179;54.350;10.102;2023-07-30T09:44:37;4.37;;;2.00;;
6292;SDS011;3179;54.350;10.102;2023-07-30T09:47:05;6.63;;;2.63;;
6292;SDS011;3179;54.350;10.102;2023-07-30T09:49:35;5.87;;;2.50;;
6292;SDS011;3179;54.350;10.102;2023-07-30T09:52:02;4.70;;;2.00;;
6292;SDS011;3179;54.350;10.102;2023-07-30T09:54:29;8.60;;;2.10;;
6292;SDS011;3179;54.350;10.102;2023-07-30T09:56:58;5.83;;;2.13;;
6292;SDS011;3179;54.350;10.102;2023-07-30T09:59:25;4.97;;;2.10;;
6292;SDS011;3179;54.350;10.102;2023-07-30T10:01:52;4.47;;;2.60;;
6292;SDS011;3179;54.350;10.102;2023-07-30T10:04:21;4.13;;;2.03;;
6292;SDS011;3179;54.350;10.102;2023-07-30T10:06:49;6.07;;;2.40;;
6292;SDS011;3179;54.350;10.102;2023-07-30T10:09:20;3.90;;;1.80;;
6292;SDS011;3179;54.350;10.102;2023-07-30T10:11:49;3.00;;;1.67;;
6292;SDS011;3179;54.350;10.102;2023-07-30T10:14:20;5.97;;;2.30;;
6292;SDS011;3179;54.350;10.102;2023-07-30T10:16:49;4.43;;;2.30;;
6292;SDS011;3179;54.350;10.102;2023-07-30T10:19:17;4.53;;;1.93;;
6292;SDS011;3179;54.350;10.102;2023-07-30T10:21:48;5.27;;;2.17;;
6292;SDS011;3179;54.350;10.102;2023-07-30T10:24:15;4.63;;;2.10;;
6292;SDS011;3179;54.350;10.102;2023-07-30T10:26:41;4.10;;;2.00;;
6292;SDS011;3179;54.350;10.102;2023-07-30T10:29:12;4.07;;;2.00;;
6292;SDS011;3179;54.350;10.102;2023-07-30T10:31:41;6.10;;;2.67;;
6292;SDS011;3179;54.350;10.102;2023-07-30T10:34:10;4.93;;;2.50;;
6292;SDS011;3179;54.350;10.102;2023-07-30T10:36:40;5.17;;;2.50;;
6292;SDS011;3179;54.350;10.102;2023-07-30T10:39:13;5.43;;;2.70;;
6292;SDS011;3179;54.350;10.102;2023-07-30T10:41:42;8.57;;;2.83;;
6292;SDS011;3179;54.350;10.102;2023-07-30T10:44:23;5.43;;;2.30;;
6292;SDS011;3179;54.350;10.102;2023-07-30T10:46:52;5.80;;;2.43;;
6292;SDS011;3179;54.350;10.102;2023-07-30T10:49:20;5.73;;;2.37;;
6292;SDS011;3179;54.350;10.102;2023-07-30T10:51:47;4.70;;;2.20;;
6292;SDS011;3179;54.350;10.102;2023-07-30T10:54:14;3.53;;;2.00;;
6292;SDS011;3179;54.350;10.102;2023-07-30T10:56:41;4.70;;;2.20;;
6292;SDS011;3179;54.350;10.102;2023-07-30T10:59:09;7.30;;;2.30;;
6292;SDS011;3179;54.350;10.102;2023-07-30T11:01:37;3.60;;;2.10;;
6292;SDS011;3179;54.350;10.102;2023-07-30T11:04:07;4.43;;;2.10;;
6292;SDS011;3179;54.350;10.102;2023-07-30T11:06:35;3.47;;;2.40;;
6292;SDS011;3179;54.350;10.102;2023-07-30T11:09:02;6.63;;;2.30;;
6292;SDS011;3179;54.350;10.102;2023-07-30T11:11:29;7.10;;;2.73;;
6292;SDS011;3179;54.350;10.102;2023-07-30T11:13:57;4.30;;;2.40;;
6292;SDS011;3179;54.350;10.102;2023-07-30T11:16:24;8.97;;;2.93;;
6292;SDS011;3179;54.350;10.102;2023-07-30T11:18:51;7.87;;;2.90;;
6292;SDS011;3179;54.350;10.102;2023-07-30T11:21:19;6.83;;;2.80;;
6292;SDS011;3179;54.350;10.102;2023-07-30T11:23:46;11.47;;;3.57;;
6292;SDS011;3179;54.350;10.102;2023-07-30T11:26:13;8.07;;;2.43;;
6292;SDS011;3179;54.350;10.102;2023-07-30T11:28:42;7.10;;;2.37;;
6292;SDS011;3179;54.350;10.102;2023-07-30T11:31:10;7.77;;;2.30;;
6292;SDS011;3179;54.350;10.102;2023-07-30T11:33:38;7.23;;;2.67;;
6292;SDS011;3179;54.350;10.102;2023-07-30T11:36:09;3.33;;;1.60;;
6292;SDS011;3179;54.350;10.102;2023-07-30T11:38:39;6.33;;;2.10;;
6292;SDS011;3179;54.350;10.102;2023-07-30T11:41:07;8.87;;;1.97;;
6292;SDS011;3179;54.350;10.102;2023-07-30T11:43:36;3.67;;;1.93;;
6292;SDS011;3179;54.350;10.102;2023-07-30T11:46:07;4.00;;;1.97;;
6292;SDS011;3179;54.350;10.102;2023-07-30T11:48:36;4.83;;;1.80;;
6292;SDS011;3179;54.350;10.102;2023-07-30T11:51:03;6.07;;;1.83;;
6292;SDS011;3179;54.350;10.102;2023-07-30T11:56:21;4.83;;;2.13;;
6292;SDS011;3179;54.350;10.102;2023-07-30T11:58:50;4.77;;;2.03;;
6292;SDS011;3179;54.350;10.102;2023-07-30T12:01:17;3.40;;;1.70;;
6292;SDS011;3179;54.350;10.102;2023-07-30T12:03:44;3.00;;;1.40;;
6292;SDS011;3179;54.350;10.102;2023-07-30T12:06:11;3.27;;;1.73;;
6292;SDS011;3179;54.350;10.102;2023-07-30T12:08:39;2.20;;;1.20;;
6292;SDS011;3179;54.350;10.102;2023-07-30T12:11:07;3.50;;;1.53;;
6292;SDS011;3179;54.350;10.102;2023-07-30T12:13:41;3.80;;;2.00;;
6292;SDS011;3179;54.350;10.102;2023-07-30T12:16:10;3.60;;;1.67;;
6292;SDS011;3179;54.350;10.102;2023-07-30T12:18:38;4.07;;;1.50;;
6292;SDS011;3179;54.350;10.102;2023-07-30T12:21:05;3.37;;;1.30;;
6292;SDS011;3179;54.350;10.102;2023-07-30T12:23:32;6.20;;;1.67;;
6292;SDS011;3179;54.350;10.102;2023-07-30T12:25:59;3.07;;;1.43;;
6292;SDS011;3179;54.350;10.102;2023-07-30T12:28:30;4.20;;;1.50;;
6292;SDS011;3179;54.350;10.102;2023-07-30T12:30:57;3.20;;;1.53;;
6292;SDS011;3179;54.350;10.102;2023-07-30T12:33:24;2.43;;;1.53;;
6292;SDS011;3179;54.350;10.102;2023-07-30T12:35:51;6.20;;;1.70;;
6292;SDS011;3179;54.350;10.102;2023-07-30T12:38:18;2.20;;;1.00;;
6292;SDS011;3179;54.350;10.102;2023-07-30T12:40:45;3.10;;;1.87;;
6292;SDS011;3179;54.350;10.102;2023-07-30T12:43:12;3.47;;;1.70;;
6292;SDS011;3179;54.350;10.102;2023-07-30T12:45:40;2.07;;;1.30;;
6292;SDS011;3179;54.350;10.102;2023-07-30T12:48:07;2.50;;;1.17;;
6292;SDS011;3179;54.350;10.102;2023-07-30T12:50:34;2.97;;;1.07;;
6292;SDS011;3179;54.350;10.102;2023-07-30T12:53:00;4.30;;;1.40;;
6292;SDS011;3179;54.350;10.102;2023-07-30T12:55:27;2.67;;;1.33;;
6292;SDS011;3179;54.350;10.102;2023-07-30T12:57:54;3.40;;;1.37;;
6292;SDS011;3179;54.350;10.102;2023-07-30T13:00:21;3.07;;;1.30;;
6292;SDS011;3179;54.350;10.102;2023-07-30T13:02:49;4.60;;;1.43;;
6292;SDS011;3179;54.350;10.102;2023-07-30T13:05:17;2.80;;;1.40;;
6292;SDS011;3179;54.350;10.102;2023-07-30T13:07:44;4.03;;;1.50;;
6292;SDS011;3179;54.350;10.102;2023-07-30T13:10:11;5.70;;;2.17;;
6292;SDS011;3179;54.350;10.102;2023-07-30T13:12:37;6.30;;;3.30;;
6292;SDS011;3179;54.350;10.102;2023-07-30T13:15:04;6.50;;;1.90;;
6292;SDS011;3179;54.350;10.102;2023-07-30T13:17:32;4.33;;;2.30;;
6292;SDS011;3179;54.350;10.102;2023-07-30T13:20:00;3.80;;;1.57;;
6292;SDS011;3179;54.350;10.102;2023-07-30T13:22:27;4.77;;;1.83;;
6292;SDS011;3179;54.350;10.102;2023-07-30T13:24:54;3.10;;;1.87;;
6292;SDS011;3179;54.350;10.102;2023-07-30T13:27:21;3.93;;;1.93;;
6292;SDS011;3179;54.350;10.102;2023-07-30T13:29:47;5.20;;;1.93;;
6292;SDS011;3179;54.350;10.102;2023-07-30T13:32:14;6.40;;;1.90;;
6292;SDS011;3179;54.350;10.102;2023-07-30T13:34:41;5.93;;;1.90;;
6292;SDS011;3179;54.350;10.102;2023-07-30T13:37:09;3.00;;;1.17;;
6292;SDS011;3179;54.350;10.102;2023-07-30T13:39:36;2.20;;;0.80;;
6292;SDS011;3179;54.350;10.102;2023-07-30T13:42:03;2.53;;;1.07;;
6292;SDS011;3179;54.350;10.102;2023-07-30T13:44:30;2.10;;;0.97;;
6292;SDS011;3179;54.350;10.102;2023-07-30T13:46:57;4.33;;;1.20;;
6292;SDS011;3179;54.350;10.102;2023-07-30T13:49:23;1.07;;;0.97;;
6292;SDS011;3179;54.350;10.102;2023-07-30T13:51:50;2.23;;;0.90;;
6292;SDS011;3179;54.350;10.102;2023-07-30T13:54:18;2.20;;;1.03;;
6292;SDS011;3179;54.350;10.102;2023-07-30T13:56:45;2.33;;;1.10;;
6292;SDS011;3179;54.350;10.102;2023-07-30T13:59:12;2.27;;;1.00;;
6292;SDS011;3179;54.350;10.102;2023-07-30T14:01:38;1.93;;;1.03;;
6292;SDS011;3179;54.350;10.102;2023-07-30T14:04:05;2.37;;;1.10;;
6292;SDS011;3179;54.350;10.102;2023-07-30T14:06:32;2.93;;;1.40;;
6292;SDS011;3179;54.350;10.102;2023-07-30T14:08:59;4.13;;;1.27;;
6292;SDS011;3179;54.350;10.102;2023-07-30T14:11:27;3.50;;;1.80;;
6292;SDS011;3179;54.350;10.102;2023-07-30T14:13:54;4.33;;;1.67;;
6292;SDS011;3179;54.350;10.102;2023-07-30T14:16:21;2.23;;;1.50;;
6292;SDS011;3179;54.350;10.102;2023-07-30T14:18:48;2.60;;;1.30;;
6292;SDS011;3179;54.350;10.102;2023-07-30T14:21:14;2.00;;;1.20;;
6292;SDS011;3179;54.350;10.102;2023-07-30T14:23:41;2.50;;;1.30;;
6292;SDS011;3179;54.350;10.102;2023-07-30T14:26:07;3.33;;;1.40;;
6292;SDS011;3179;54.350;10.102;2023-07-30T14:28:35;3.60;;;1.70;;
6292;SDS011;3179;54.350;10.102;2023-07-30T14:31:02;5.23;;;1.90;;
6292;SDS011;3179;54.350;10.102;2023-07-30T14:33:29;4.63;;;1.63;;
6292;SDS011;3179;54.350;10.102;2023-07-30T14:35:55;5.23;;;1.67;;
6292;SDS011;3179;54.350;10.102;2023-07-30T14:38:22;6.10;;;1.70;;
6292;SDS011;3179;54.350;10.102;2023-07-30T14:40:49;3.23;;;1.40;;
6292;SDS011;3179;54.350;10.102;2023-07-30T14:43:16;4.57;;;1.33;;
6292;SDS011;3179;54.350;10.102;2023-07-30T14:45:44;2.63;;;1.30;;
6292;SDS011;3179;54.350;10.102;2023-07-30T14:48:11;4.53;;;1.60;;
6292;SDS011;3179;54.350;10.102;2023-07-30T14:50:38;4.60;;;1.70;;
6292;SDS011;3179;54.350;10.102;2023-07-30T14:53:05;2.77;;;1.10;;
6292;SDS011;3179;54.350;10.102;2023-07-30T14:55:32;4.17;;;1.60;;
6292;SDS011;3179;54.350;10.102;2023-07-30T14:57:59;4.00;;;1.97;;
6292;SDS011;3179;54.350;10.102;2023-07-30T15:00:26;2.93;;;1.73;;
6292;SDS011;3179;54.350;10.102;2023-07-30T15:02:54;3.30;;;1.80;;